createdAt,value
2023-05-19T00:03:23.187Z,8.64
2023-05-19T00:08:27.541Z,8.62
2023-05-19T00:13:32.882Z,8.65
2023-05-19T00:18:36.504Z,8.63
2023-05-19T00:23:40.003Z,8.63
2023-05-19T00:28:44.576Z,8.60
2023-05-19T00:33:47.689Z,8.62
2023-05-19T00:38:51.599Z,8.50
2023-05-19T00:43:56.602Z,8.50
2023-05-19T00:49:00.055Z,8.43
2023-05-19T00:54:03.518Z,8.37
2023-05-19T00:59:08.757Z,8.33
2023-05-19T01:04:17.157Z,8.32
2023-05-19T01:09:21.218Z,8.20
2023-05-19T01:14:26.117Z,8.23
2023-05-19T01:19:48.551Z,8.14
2023-05-19T01:25:21.234Z,8.23
2023-05-19T01:30:31.545Z,8.23
2023-05-19T01:35:37.590Z,8.14
2023-05-19T01:40:42.245Z,8.08
2023-05-19T01:45:47.916Z,8.03
2023-05-19T01:50:51.422Z,7.84
2023-05-19T01:55:56.421Z,7.91
2023-05-19T02:01:09.176Z,7.85
2023-05-19T02:06:24.128Z,7.79
2023-05-19T02:11:36.666Z,7.76
2023-05-19T02:16:46.344Z,7.72
2023-05-19T02:21:49.768Z,7.76
2023-05-19T02:26:54.033Z,7.76
2023-05-19T02:31:58.828Z,7.82
2023-05-19T02:37:02.390Z,7.85
2023-05-19T02:42:06.145Z,7.85
2023-05-19T02:47:10.630Z,7.91
2023-05-19T02:52:14.206Z,7.92
2023-05-19T02:57:17.251Z,7.83
2023-05-19T03:02:22.231Z,7.88
2023-05-19T03:07:25.606Z,7.81
2023-05-19T03:12:28.702Z,7.75
2023-05-19T03:17:34.593Z,7.71
2023-05-19T03:22:37.803Z,7.59
2023-05-19T03:27:41.391Z,7.47
2023-05-19T03:32:46.020Z,7.36
2023-05-19T03:37:49.551Z,7.32
2023-05-19T03:42:54.667Z,7.41
2023-05-19T03:47:59.117Z,7.42
2023-05-19T03:53:02.788Z,7.38
2023-05-19T03:58:06.906Z,7.41
2023-05-19T04:03:11.895Z,7.46
2023-05-19T04:08:15.185Z,7.52
2023-05-19T04:13:18.713Z,7.56
2023-05-19T04:18:23.116Z,7.60
2023-05-19T04:23:26.573Z,7.75
2023-05-19T04:28:29.847Z,7.77
2023-05-19T04:33:34.617Z,7.81
2023-05-19T04:38:40.266Z,7.85
2023-05-19T04:43:44.892Z,7.93
2023-05-19T04:48:50.331Z,7.93
2023-05-19T04:53:54.202Z,7.99
2023-05-19T04:58:57.237Z,8.07
2023-05-19T05:04:02.529Z,8.17
2023-05-19T05:09:05.889Z,8.22
2023-05-19T05:14:09.809Z,8.27
2023-05-19T05:19:14.900Z,8.37
2023-05-19T05:24:18.577Z,8.51
2023-05-19T05:29:22.062Z,8.70
2023-05-19T05:34:26.850Z,8.85
2023-05-19T05:39:30.345Z,8.92
2023-05-19T05:44:35.814Z,9.02
2023-05-19T05:49:41.848Z,9.18
2023-05-19T05:54:46.268Z,9.26
2023-05-19T05:59:50.652Z,9.51
2023-05-19T06:04:55.652Z,9.72
2023-05-19T06:09:58.724Z,9.97
2023-05-19T06:15:03.667Z,10.26
2023-05-19T06:20:10.094Z,10.72
2023-05-19T06:25:13.946Z,11.67
2023-05-19T06:30:17.283Z,12.47
2023-05-19T06:35:21.943Z,13.43
2023-05-19T06:40:25.077Z,14.09
2023-05-19T06:45:28.523Z,14.31
2023-05-19T06:50:33.228Z,14.67
2023-05-19T06:55:43.925Z,15.67
2023-05-19T07:00:53.982Z,16.01
2023-05-19T07:05:58.921Z,16.77
2023-05-19T07:11:02.378Z,16.92
2023-05-19T07:16:06.225Z,17.13
2023-05-19T07:21:10.604Z,17.21
2023-05-19T07:26:14.092Z,17.03
2023-05-19T07:31:18.338Z,16.83
2023-05-19T07:36:22.798Z,16.83
2023-05-19T07:41:26.188Z,18.38
2023-05-19T07:46:29.338Z,18.54
2023-05-19T07:51:33.908Z,18.85
2023-05-19T07:56:37.054Z,17.44
2023-05-19T08:01:40.139Z,18.50
2023-05-19T08:06:44.627Z,19.10
2023-05-19T08:11:47.858Z,19.91
2023-05-19T08:16:51.695Z,18.64
2023-05-19T08:21:56.185Z,19.69
2023-05-19T08:26:59.285Z,20.66
2023-05-19T08:32:03.077Z,20.89
2023-05-19T08:37:07.680Z,21.46
2023-05-19T08:42:11.467Z,21.83
2023-05-19T08:47:16.077Z,21.38
2023-05-19T08:52:32.359Z,21.84
2023-05-19T08:57:35.787Z,22.80
2023-05-19T09:02:50.387Z,22.10
2023-05-19T09:08:05.481Z,22.80
2023-05-19T09:13:08.604Z,22.94
2023-05-19T09:18:13.099Z,23.23
2023-05-19T09:23:18.829Z,23.08
2023-05-19T09:28:26.369Z,22.80
2023-05-19T09:33:30.635Z,22.98
2023-05-19T09:38:36.892Z,23.62
2023-05-19T09:43:40.323Z,23.74
2023-05-19T09:48:44.226Z,22.62
2023-05-19T09:53:49.455Z,22.82
2023-05-19T09:58:53.858Z,22.84
2023-05-19T10:03:57.334Z,22.43
2023-05-19T10:09:02.670Z,23.33
2023-05-19T10:14:06.655Z,24.49
2023-05-19T10:19:10.414Z,23.83
2023-05-19T10:24:14.886Z,22.92
2023-05-19T10:29:24.048Z,24.50
2023-05-19T10:34:50.235Z,24.01
2023-05-19T10:39:55.558Z,24.06
2023-05-19T10:45:06.825Z,24.09
2023-05-19T10:50:11.106Z,22.22
2023-05-19T10:55:17.452Z,22.34
2023-05-19T11:00:28.825Z,23.86
2023-05-19T11:05:32.202Z,24.18
2023-05-19T11:10:36.856Z,23.83
2023-05-19T11:15:43.772Z,22.41
2023-05-19T11:20:58.547Z,23.57
2023-05-19T11:26:04.153Z,24.50
2023-05-19T11:31:10.714Z,22.58
2023-05-19T11:36:14.052Z,22.62
2023-05-19T11:41:20.759Z,22.42
2023-05-19T11:46:24.183Z,23.28
2023-05-19T11:51:27.429Z,24.17
2023-05-19T11:56:40.944Z,23.05
2023-05-19T12:01:44.126Z,23.80
2023-05-19T12:06:49.770Z,23.24
2023-05-19T12:11:56.094Z,23.88
2023-05-19T12:16:59.424Z,24.00
2023-05-19T12:22:04.052Z,24.53
2023-05-19T12:27:12.819Z,23.61
2023-05-19T12:32:16.476Z,24.00
2023-05-19T12:37:20.421Z,23.28
2023-05-19T12:42:30.874Z,22.53
2023-05-19T12:47:35.785Z,21.54
2023-05-19T12:52:43.651Z,21.41
2023-05-19T12:57:51.510Z,21.54
2023-05-19T13:03:00.470Z,21.40
2023-05-19T13:08:06.900Z,21.46
2023-05-19T13:13:11.492Z,20.94
2023-05-19T13:18:15.477Z,20.72
2023-05-19T13:23:18.607Z,20.86
2023-05-19T13:28:23.743Z,20.19
2023-05-19T13:33:26.789Z,20.05
2023-05-19T13:38:30.538Z,20.62
2023-05-19T13:43:34.973Z,20.83
2023-05-19T13:48:38.047Z,20.84
2023-05-19T13:53:41.231Z,20.99
2023-05-19T13:58:46.098Z,20.92
2023-05-19T14:03:49.747Z,21.59
2023-05-19T14:08:53.309Z,21.93
2023-05-19T14:13:58.053Z,22.37
2023-05-19T14:19:01.191Z,23.05
2023-05-19T14:24:04.489Z,22.30
2023-05-19T14:29:08.898Z,22.02
2023-05-19T14:34:12.418Z,21.94
2023-05-19T14:39:15.585Z,22.03
2023-05-19T14:44:20.292Z,21.66
2023-05-19T14:49:23.763Z,21.25
2023-05-19T14:54:27.242Z,20.87
2023-05-19T14:59:32.022Z,21.26
2023-05-19T15:04:35.111Z,21.28
2023-05-19T15:09:38.415Z,21.97
2023-05-19T15:14:42.822Z,21.68
2023-05-19T15:19:46.152Z,21.64
2023-05-19T15:24:49.383Z,21.49
2023-05-19T15:29:53.914Z,21.53
2023-05-19T15:34:57.351Z,21.25
2023-05-19T15:40:00.416Z,21.34
2023-05-19T15:45:05.784Z,21.53
2023-05-19T15:50:10.073Z,21.59
2023-05-19T15:55:13.155Z,21.37
2023-05-19T16:00:17.793Z,20.88
2023-05-19T16:05:21.072Z,20.19
2023-05-19T16:10:24.223Z,20.03
2023-05-19T16:15:28.626Z,19.72
2023-05-19T16:20:31.896Z,20.45
2023-05-19T16:25:35.349Z,20.57
2023-05-19T16:30:39.785Z,20.40
2023-05-19T16:35:43.303Z,20.88
2023-05-19T16:40:46.713Z,20.61
2023-05-19T16:45:51.108Z,20.46
2023-05-19T16:50:54.179Z,19.85
2023-05-19T16:55:58.978Z,19.67
2023-05-19T17:01:03.978Z,19.47
2023-05-19T17:06:07.526Z,19.59
2023-05-19T17:11:10.563Z,19.40
2023-05-19T17:16:15.048Z,19.23
2023-05-19T17:21:18.476Z,19.11
2023-05-19T17:26:22.067Z,18.82
2023-05-19T17:31:26.684Z,18.81
2023-05-19T17:36:30.262Z,18.21
2023-05-19T17:41:33.746Z,18.06
2023-05-19T17:46:39.209Z,17.94
2023-05-19T17:51:42.996Z,17.58
2023-05-19T17:56:46.479Z,17.51
2023-05-19T18:01:51.915Z,17.26
2023-05-19T18:06:56.653Z,17.15
2023-05-19T18:12:01.997Z,17.14
2023-05-19T18:17:06.943Z,16.96
2023-05-19T18:22:12.796Z,16.81
2023-05-19T18:27:15.876Z,16.65
2023-05-19T18:32:20.234Z,16.45
2023-05-19T18:37:23.501Z,16.23
2023-05-19T18:42:26.566Z,16.10
2023-05-19T18:47:31.412Z,15.87
2023-05-19T18:52:35.013Z,15.77
2023-05-19T18:57:38.085Z,15.59
2023-05-19T19:02:42.897Z,15.42
2023-05-19T19:07:46.417Z,15.30
2023-05-19T19:12:49.551Z,15.05
2023-05-19T19:17:53.983Z,14.87
2023-05-19T19:22:58.657Z,14.74
2023-05-19T19:28:02.400Z,14.67
2023-05-19T19:33:07.054Z,14.62
2023-05-19T19:38:10.223Z,14.62
2023-05-19T19:43:13.615Z,14.69
2023-05-19T19:48:18.247Z,14.74
2023-05-19T19:53:21.512Z,14.75
2023-05-19T19:58:25.032Z,14.75
2023-05-19T20:03:30.202Z,14.76
2023-05-19T20:08:33.542Z,14.76
2023-05-19T20:13:36.772Z,14.76
2023-05-19T20:18:41.412Z,14.68
2023-05-19T20:23:44.630Z,14.55
2023-05-19T20:28:47.749Z,14.43
2023-05-19T20:33:52.271Z,14.17
2023-05-19T20:38:55.374Z,14.09
2023-05-19T20:43:58.410Z,13.92
2023-05-19T20:49:02.961Z,13.69
2023-05-19T20:54:07.533Z,13.57
2023-05-19T20:59:10.768Z,13.43
2023-05-19T21:04:15.261Z,13.37
2023-05-19T21:09:18.830Z,13.32
2023-05-19T21:14:22.139Z,13.44
2023-05-19T21:19:26.945Z,13.46
2023-05-19T21:24:31.381Z,13.41
2023-05-19T21:29:34.894Z,13.42
2023-05-19T21:34:39.748Z,13.45
2023-05-19T21:39:43.059Z,13.48
2023-05-19T21:44:46.767Z,13.43
2023-05-19T21:49:51.639Z,13.47
2023-05-19T21:54:56.434Z,13.38
2023-05-19T21:59:59.872Z,13.37
2023-05-19T22:05:04.410Z,13.35
2023-05-19T22:10:08.131Z,13.28
2023-05-19T22:15:13.288Z,13.26
2023-05-19T22:20:18.100Z,13.27
2023-05-19T22:25:21.577Z,13.26
2023-05-19T22:30:25.122Z,13.20
2023-05-19T22:35:29.776Z,13.17
2023-05-19T22:40:33.500Z,13.10
2023-05-19T22:45:37.067Z,13.13
2023-05-19T22:50:42.033Z,13.09
2023-05-19T22:55:45.473Z,13.06
2023-05-19T23:00:48.582Z,13.04
2023-05-19T23:05:52.990Z,13.10
2023-05-19T23:11:01.155Z,13.11
2023-05-19T23:16:04.954Z,13.09
2023-05-19T23:21:09.776Z,13.08
2023-05-19T23:26:13.649Z,13.10
2023-05-19T23:31:17.240Z,13.02
2023-05-19T23:36:22.126Z,13.05
2023-05-19T23:41:26.072Z,12.96
2023-05-19T23:46:29.548Z,12.94
2023-05-19T23:51:34.613Z,13.02
2023-05-19T23:56:37.678Z,12.99
